Time;durP1;ratioP1;P1;durP2;ratioP2;P2;SDS_P1;SDS_P2;PMS_P1;PMS_P2;Temp;Humidity;BMP_temperature;BMP_pressure;BME280_temperature;BME280_humidity;BME280_pressure;Samples;Min_cycle;Max_cycle;Signal;HPM_P1;HPM_P2
2023/08/08 00:00:56;;;;;;;;;;;15.50;99.90;;;;;;8432160;28;19927;-70
2023/08/08 00:04:57;;;;;;;;;;;15.50;99.90;;;;;;8419974;28;19924;-70
2023/08/08 00:08:59;;;;;;;;;;;15.50;99.90;;;;;;8404692;28;19928;-70
2023/08/08 00:13:01;;;;;;;;;;;15.50;99.90;;;;;;8426928;28;20265;-70
2023/08/08 00:27:09;;;;;;;;;;;15.60;99.90;;;;;;8420017;28;20506;-70
2023/08/08 00:31:11;;;;;;;;;;;15.60;99.90;;;;;;8439641;27;20384;-70
2023/08/08 00:35:13;;;;;;;;;;;15.70;99.90;;;;;;8411053;28;19927;-70
2023/08/08 00:39:14;;;;;;;;;;;15.70;99.90;;;;;;8411638;28;19924;-70
2023/08/08 00:43:16;;;;;;;;;;;15.70;99.90;;;;;;8438008;28;19927;-70
2023/08/08 00:47:18;;;;;;;;;;;15.80;99.90;;;;;;8424628;28;19930;-70
2023/08/08 00:51:20;;;;;;;;;;;15.80;99.90;;;;;;8424154;28;19935;-70
2023/08/08 00:55:21;;;;;;;;;;;15.90;99.90;;;;;;8404824;28;20300;-70
2023/08/08 00:59:23;;;;;;;;;;;16.00;99.90;;;;;;8421714;28;19931;-70
2023/08/08 01:03:25;;;;;;;;;;;16.00;99.90;;;;;;8400647;28;19924;-70
2023/08/08 01:07:36;;;;;;;;;;;16.10;99.90;;;;;;8436552;28;19924;-70
2023/08/08 01:11:38;;;;;;;;;;;16.10;99.90;;;;;;8416312;28;19931;-70
2023/08/08 01:15:39;;;;;;;;;;;16.10;99.90;;;;;;8443804;28;19969;-70
2023/08/08 01:19:41;;;;;;;;;;;16.10;99.90;;;;;;8429107;28;20357;-70
2023/08/08 01:23:52;;;;;;;;;;;16.10;99.90;;;;;;8430132;28;19927;-70
2023/08/08 01:27:53;;;;;;;;;;;16.10;99.90;;;;;;8393218;28;19977;-70
2023/08/08 01:31:55;;;;;;;;;;;16.10;99.90;;;;;;8431488;27;19977;-70
2023/08/08 01:36:00;;;;;;;;;;;16.00;99.90;;;;;;8409886;28;19925;-70
2023/08/08 01:40:03;;;;;;;;;;;16.00;99.90;;;;;;8422068;28;19928;-70
2023/08/08 01:44:05;;;;;;;;;;;16.00;99.90;;;;;;8396273;28;19924;-70
2023/08/08 01:48:08;;;;;;;;;;;15.90;99.90;;;;;;8441523;28;19935;-70
2023/08/08 01:52:09;;;;;;;;;;;15.90;99.90;;;;;;8429527;28;19986;-70
2023/08/08 01:56:11;;;;;;;;;;;15.80;99.90;;;;;;8405817;28;19931;-70
2023/08/08 02:00:13;;;;;;;;;;;15.80;99.90;;;;;;8434744;28;20291;-70
2023/08/08 02:04:14;;;;;;;;;;;15.80;99.90;;;;;;8429418;28;19931;-70
2023/08/08 02:08:18;;;;;;;;;;;15.80;99.90;;;;;;8425626;28;19924;-70
2023/08/08 02:12:19;;;;;;;;;;;15.70;99.90;;;;;;8399860;28;19930;-70
2023/08/08 02:16:21;;;;;;;;;;;15.70;99.90;;;;;;8412886;28;19931;-70
2023/08/08 02:20:23;;;;;;;;;;;15.70;99.90;;;;;;8397430;28;19924;-70
2023/08/08 02:24:24;;;;;;;;;;;15.70;99.90;;;;;;8431951;28;19969;-70
2023/08/08 02:28:26;;;;;;;;;;;15.70;99.90;;;;;;8435002;28;19927;-70
2023/08/08 02:32:28;;;;;;;;;;;15.60;99.90;;;;;;8425895;28;19932;-70
2023/08/08 02:36:29;;;;;;;;;;;15.60;99.90;;;;;;8440381;27;19939;-70
2023/08/08 02:40:32;;;;;;;;;;;15.50;99.90;;;;;;8422339;28;19931;-70
2023/08/08 02:44:34;;;;;;;;;;;15.50;99.90;;;;;;8418700;28;19923;-70
2023/08/08 02:48:36;;;;;;;;;;;15.50;99.90;;;;;;8414552;28;19932;-70
2023/08/08 02:52:37;;;;;;;;;;;15.40;99.90;;;;;;8422875;28;19943;-70
2023/08/08 02:56:39;;;;;;;;;;;15.40;99.90;;;;;;8434958;28;19954;-70
2023/08/08 03:00:41;;;;;;;;;;;15.30;99.90;;;;;;8420243;28;19985;-70
2023/08/08 03:04:42;;;;;;;;;;;15.30;99.90;;;;;;8405753;28;19924;-70
2023/08/08 03:08:44;;;;;;;;;;;15.30;99.90;;;;;;8424740;28;19924;-70
2023/08/08 03:22:46;;;;;;;;;;;15.30;99.90;;;;;;8432839;28;19926;-70
2023/08/08 03:26:48;;;;;;;;;;;15.20;99.90;;;;;;8414516;28;19932;-70
2023/08/08 03:40:56;;;;;;;;;;;15.20;99.90;;;;;;8416222;28;20268;-70
2023/08/08 03:44:58;;;;;;;;;;;15.20;99.90;;;;;;8408910;28;19924;-70
2023/08/08 03:49:00;;;;;;;;;;;15.20;99.90;;;;;;8422720;28;19935;-70
2023/08/08 03:53:01;;;;;;;;;;;15.20;99.90;;;;;;8420575;28;20365;-70
2023/08/08 03:57:03;;;;;;;;;;;15.30;99.90;;;;;;8402241;28;19951;-70
2023/08/08 04:01:05;;;;;;;;;;;15.30;99.90;;;;;;8414059;28;19933;-70
2023/08/08 04:05:07;;;;;;;;;;;15.30;99.90;;;;;;8394031;28;20426;-69
2023/08/08 04:09:08;;;;;;;;;;;15.30;99.90;;;;;;8384889;28;19931;-70
2023/08/08 04:13:10;;;;;;;;;;;15.20;99.90;;;;;;8407985;28;19932;-70
2023/08/08 04:17:12;;;;;;;;;;;15.20;99.90;;;;;;8407705;28;20331;-70
2023/08/08 04:21:14;;;;;;;;;;;15.20;99.90;;;;;;8419353;28;19924;-70
2023/08/08 04:25:16;;;;;;;;;;;15.20;99.90;;;;;;8416129;28;19928;-70
2023/08/08 04:29:17;;;;;;;;;;;15.20;99.90;;;;;;8434799;28;20396;-70
2023/08/08 04:33:19;;;;;;;;;;;15.20;99.90;;;;;;8427678;28;19989;-70
2023/08/08 04:37:21;;;;;;;;;;;15.20;99.90;;;;;;8418734;28;19932;-70
2023/08/08 04:41:22;;;;;;;;;;;15.20;99.90;;;;;;8444189;28;20295;-70
2023/08/08 04:45:24;;;;;;;;;;;15.20;99.90;;;;;;8426790;28;19931;-70
2023/08/08 04:49:26;;;;;;;;;;;15.20;99.90;;;;;;8419187;28;19947;-70
2023/08/08 04:53:27;;;;;;;;;;;15.20;99.90;;;;;;8437118;28;19924;-70
2023/08/08 04:57:29;;;;;;;;;;;15.30;99.90;;;;;;8443337;28;19977;-70
2023/08/08 05:01:31;;;;;;;;;;;15.20;99.90;;;;;;8441953;28;19924;-70
2023/08/08 05:05:32;;;;;;;;;;;15.20;99.90;;;;;;8420708;28;20464;-70
2023/08/08 05:09:34;;;;;;;;;;;15.20;99.90;;;;;;8403278;28;19932;-70
2023/08/08 05:13:36;;;;;;;;;;;15.20;99.90;;;;;;8410325;28;20004;-70
2023/08/08 05:17:37;;;;;;;;;;;15.30;99.90;;;;;;8422814;28;19924;-70
2023/08/08 05:21:39;;;;;;;;;;;15.30;99.90;;;;;;8432846;28;19924;-70
2023/08/08 05:25:42;;;;;;;;;;;15.30;99.90;;;;;;8401337;28;19934;-70
2023/08/08 05:29:43;;;;;;;;;;;15.40;99.90;;;;;;8402918;28;19928;-70
2023/08/08 05:33:45;;;;;;;;;;;15.30;99.90;;;;;;8441730;27;20287;-70
2023/08/08 05:37:47;;;;;;;;;;;15.30;99.90;;;;;;8438680;28;19923;-70
2023/08/08 05:41:48;;;;;;;;;;;15.40;99.90;;;;;;8439867;28;19983;-70
2023/08/08 05:45:50;;;;;;;;;;;15.40;99.90;;;;;;8440066;28;20318;-70
2023/08/08 05:49:52;;;;;;;;;;;15.40;99.90;;;;;;8418676;28;19924;-70
2023/08/08 05:53:53;;;;;;;;;;;15.50;99.90;;;;;;8436747;28;19947;-70
2023/08/08 05:57:55;;;;;;;;;;;15.60;99.90;;;;;;8432900;28;19928;-70
2023/08/08 06:01:57;;;;;;;;;;;15.70;99.90;;;;;;8427664;28;19924;-70
2023/08/08 06:05:59;;;;;;;;;;;15.70;99.90;;;;;;8446444;28;20394;-70
2023/08/08 06:10:00;;;;;;;;;;;15.80;99.90;;;;;;8420150;28;19928;-70
2023/08/08 06:14:02;;;;;;;;;;;15.90;99.90;;;;;;8439693;28;19928;-70
2023/08/08 06:18:04;;;;;;;;;;;16.00;99.90;;;;;;8419304;28;19972;-70
2023/08/08 06:22:06;;;;;;;;;;;16.00;99.90;;;;;;8419208;28;19935;-70
2023/08/08 06:26:09;;;;;;;;;;;16.10;99.90;;;;;;8424248;28;19924;-70
2023/08/08 06:30:11;;;;;;;;;;;16.20;99.90;;;;;;8450783;28;19985;-70
2023/08/08 06:34:12;;;;;;;;;;;16.30;99.90;;;;;;8446141;28;19928;-69
2023/08/08 06:38:14;;;;;;;;;;;16.30;99.90;;;;;;8426757;28;19930;-70
2023/08/08 06:42:16;;;;;;;;;;;16.30;99.90;;;;;;8448811;28;19977;-70
2023/08/08 06:46:20;;;;;;;;;;;16.40;99.90;;;;;;8433027;28;19924;-69
2023/08/08 06:50:24;;;;;;;;;;;16.50;99.90;;;;;;8425661;28;20310;-70
2023/08/08 06:54:28;;;;;;;;;;;16.50;99.90;;;;;;8442204;28;19924;-70
2023/08/08 06:58:29;;;;;;;;;;;16.50;99.90;;;;;;8420002;28;19932;-70
2023/08/08 07:02:31;;;;;;;;;;;16.60;99.90;;;;;;8446933;28;19985;-70
2023/08/08 07:06:33;;;;;;;;;;;16.60;99.90;;;;;;8452168;28;19923;-70
2023/08/08 07:10:35;;;;;;;;;;;16.70;99.90;;;;;;8435267;28;19923;-70
2023/08/08 07:14:37;;;;;;;;;;;16.70;99.90;;;;;;8423832;28;20380;-70
2023/08/08 07:18:38;;;;;;;;;;;16.80;99.90;;;;;;8415703;28;19990;-70
2023/08/08 07:22:40;;;;;;;;;;;16.80;99.90;;;;;;8429232;28;19923;-71
2023/08/08 07:26:42;;;;;;;;;;;16.80;99.90;;;;;;8421769;28;19924;-70
2023/08/08 07:30:43;;;;;;;;;;;16.90;99.90;;;;;;8409919;28;20736;-70
2023/08/08 07:34:45;;;;;;;;;;;17.00;99.90;;;;;;8416281;28;20334;-70
2023/08/08 07:38:47;;;;;;;;;;;17.00;99.90;;;;;;8424106;28;19993;-70
2023/08/08 07:42:49;;;;;;;;;;;17.00;99.90;;;;;;8386819;28;19954;-70
2023/08/08 07:46:53;;;;;;;;;;;17.10;99.90;;;;;;8429933;28;19928;-70
2023/08/08 07:50:55;;;;;;;;;;;17.10;99.90;;;;;;8442257;28;20294;-70
2023/08/08 07:54:56;;;;;;;;;;;17.20;99.90;;;;;;8332325;28;2503261;-70
2023/08/08 07:58:59;;;;;;;;;;;17.30;99.90;;;;;;8404057;28;19928;-70
2023/08/08 08:03:00;;;;;;;;;;;17.30;99.90;;;;;;8402827;28;19990;-70
2023/08/08 08:07:02;;;;;;;;;;;17.30;99.90;;;;;;8428668;28;20372;-70
2023/08/08 08:11:04;;;;;;;;;;;17.30;99.90;;;;;;8415507;28;19928;-70
2023/08/08 08:15:06;;;;;;;;;;;17.30;99.90;;;;;;8429311;28;19969;-69
2023/08/08 08:19:07;;;;;;;;;;;17.30;99.90;;;;;;8431549;28;19928;-70
2023/08/08 08:23:09;;;;;;;;;;;17.40;99.90;;;;;;8424474;28;20303;-70
2023/08/08 08:27:11;;;;;;;;;;;17.40;99.90;;;;;;8387041;28;19930;-70
2023/08/08 08:31:13;;;;;;;;;;;17.30;99.90;;;;;;8416596;28;19969;-70
2023/08/08 08:35:16;;;;;;;;;;;17.40;99.90;;;;;;8431336;28;19940;-70
2023/08/08 08:39:19;;;;;;;;;;;17.50;99.90;;;;;;8428122;28;19935;-70
2023/08/08 08:43:21;;;;;;;;;;;17.50;99.90;;;;;;8419680;28;20011;-70
2023/08/08 08:47:23;;;;;;;;;;;17.50;99.90;;;;;;8416870;28;19932;-70
2023/08/08 08:51:25;;;;;;;;;;;17.60;99.90;;;;;;8422298;28;19929;-70
2023/08/08 08:55:27;;;;;;;;;;;17.50;99.90;;;;;;8432738;28;19970;-70
2023/08/08 08:59:29;;;;;;;;;;;17.50;99.90;;;;;;8414765;28;19924;-70
2023/08/08 09:03:31;;;;;;;;;;;17.60;99.90;;;;;;8432738;28;20489;-70
2023/08/08 09:07:32;;;;;;;;;;;17.60;99.90;;;;;;8426591;28;19928;-70
2023/08/08 09:11:35;;;;;;;;;;;17.70;99.90;;;;;;8433965;28;20410;-70
2023/08/08 09:15:36;;;;;;;;;;;17.70;99.90;;;;;;8389978;28;19932;-70
2023/08/08 09:19:38;;;;;;;;;;;17.70;99.90;;;;;;8424891;28;19924;-70
2023/08/08 09:23:40;;;;;;;;;;;17.80;99.90;;;;;;8417005;28;20422;-70
2023/08/08 09:27:44;;;;;;;;;;;17.80;99.90;;;;;;8385881;28;20402;-71
2023/08/08 09:31:46;;;;;;;;;;;17.70;99.90;;;;;;8432037;28;19981;-70
2023/08/08 09:35:48;;;;;;;;;;;17.70;99.90;;;;;;8418737;28;19928;-70
2023/08/08 09:39:59;;;;;;;;;;;17.80;99.90;;;;;;8419322;28;19932;-70
2023/08/08 09:44:01;;;;;;;;;;;17.90;99.90;;;;;;8432179;28;19924;-70
2023/08/08 09:48:03;;;;;;;;;;;17.90;99.90;;;;;;8413948;28;19928;-70
2023/08/08 09:52:05;;;;;;;;;;;18.00;99.90;;;;;;8422790;28;19930;-70
2023/08/08 09:56:07;;;;;;;;;;;18.00;99.90;;;;;;8416594;28;19928;-70
2023/08/08 10:00:15;;;;;;;;;;;18.00;99.90;;;;;;8431361;27;19931;-70
2023/08/08 10:04:18;;;;;;;;;;;18.00;99.90;;;;;;8419277;28;19928;-70
2023/08/08 10:08:20;;;;;;;;;;;18.00;99.90;;;;;;8401975;28;20286;-70
2023/08/08 10:12:22;;;;;;;;;;;17.90;99.90;;;;;;8422573;28;19931;-70
2023/08/08 10:16:24;;;;;;;;;;;17.90;99.90;;;;;;8426426;28;19924;-70
2023/08/08 10:20:26;;;;;;;;;;;17.90;99.90;;;;;;8410720;28;19962;-70
2023/08/08 10:24:32;;;;;;;;;;;18.00;99.90;;;;;;8406912;28;19953;-70
2023/08/08 10:28:34;;;;;;;;;;;18.10;99.90;;;;;;8416111;28;19924;-70
2023/08/08 10:32:42;;;;;;;;;;;18.20;99.90;;;;;;8415076;28;20372;-70
2023/08/08 10:36:48;;;;;;;;;;;18.40;99.90;;;;;;8436004;28;20375;-70
2023/08/08 10:40:56;;;;;;;;;;;18.60;99.90;;;;;;8425136;28;20260;-69
2023/08/08 10:45:01;;;;;;;;;;;18.60;99.90;;;;;;8425585;27;19975;-70
2023/08/08 10:49:05;;;;;;;;;;;18.60;99.90;;;;;;8400031;28;19923;-70
2023/08/08 10:53:09;;;;;;;;;;;18.60;99.90;;;;;;8413482;28;19928;-71
2023/08/08 10:57:15;;;;;;;;;;;18.50;99.90;;;;;;8423523;28;19924;-70
2023/08/08 11:01:17;;;;;;;;;;;18.50;99.90;;;;;;8413252;28;19931;-70
2023/08/08 11:05:19;;;;;;;;;;;18.50;99.90;;;;;;8425848;28;19931;-69
2023/08/08 11:09:21;;;;;;;;;;;18.50;99.90;;;;;;8421279;28;19924;-70
2023/08/08 11:13:23;;;;;;;;;;;18.50;99.90;;;;;;8427909;28;20383;-70
2023/08/08 11:17:24;;;;;;;;;;;18.50;99.90;;;;;;8424150;28;19924;-70
2023/08/08 11:21:26;;;;;;;;;;;18.60;99.90;;;;;;8390794;28;19924;-70
2023/08/08 11:25:29;;;;;;;;;;;18.70;99.90;;;;;;8433486;27;19966;-69
2023/08/08 11:29:31;;;;;;;;;;;18.80;99.90;;;;;;8421828;28;20261;-69
2023/08/08 11:33:33;;;;;;;;;;;18.80;99.90;;;;;;8442964;27;20168;-70
2023/08/08 11:37:35;;;;;;;;;;;18.80;99.90;;;;;;8420333;28;19924;-70
2023/08/08 11:41:37;;;;;;;;;;;18.80;99.90;;;;;;8417049;28;19924;-70
2023/08/08 11:45:39;;;;;;;;;;;18.80;99.90;;;;;;8415012;28;19932;-71
2023/08/08 11:49:42;;;;;;;;;;;18.80;99.90;;;;;;8419479;28;19928;-71
2023/08/08 11:53:50;;;;;;;;;;;18.80;99.90;;;;;;8409351;28;20301;-70
2023/08/08 11:57:56;;;;;;;;;;;18.80;99.90;;;;;;8421700;28;19969;-70
2023/08/08 12:01:58;;;;;;;;;;;18.90;99.90;;;;;;8421814;28;19993;-70
2023/08/08 12:06:00;;;;;;;;;;;18.90;99.90;;;;;;8407669;28;20389;-71
2023/08/08 12:10:05;;;;;;;;;;;18.90;99.90;;;;;;8398483;28;20405;-70
2023/08/08 12:14:10;;;;;;;;;;;18.80;99.90;;;;;;8425612;28;19928;-71
2023/08/08 12:18:11;;;;;;;;;;;18.80;99.90;;;;;;8422240;28;19936;-70
2023/08/08 12:22:13;;;;;;;;;;;18.90;99.90;;;;;;8409291;28;19932;-70
2023/08/08 12:26:15;;;;;;;;;;;18.90;99.90;;;;;;8407372;28;19928;-71
2023/08/08 12:30:17;;;;;;;;;;;18.90;99.90;;;;;;8414768;28;19932;-70
2023/08/08 12:34:18;;;;;;;;;;;18.80;99.90;;;;;;8408991;28;20027;-70
2023/08/08 12:38:20;;;;;;;;;;;18.80;99.90;;;;;;8411654;28;19924;-70
2023/08/08 12:42:22;;;;;;;;;;;18.70;99.90;;;;;;8423456;28;19924;-71
2023/08/08 12:46:24;;;;;;;;;;;18.70;99.90;;;;;;8421184;28;19928;-71
2023/08/08 12:50:25;;;;;;;;;;;18.70;99.90;;;;;;8425178;28;19931;-71
2023/08/08 12:54:27;;;;;;;;;;;18.70;99.90;;;;;;8401292;28;19925;-70
2023/08/08 12:58:29;;;;;;;;;;;18.70;99.90;;;;;;8396132;28;20375;-71
2023/08/08 13:02:30;;;;;;;;;;;18.70;99.90;;;;;;8414602;28;19928;-70
2023/08/08 13:06:33;;;;;;;;;;;18.70;99.90;;;;;;8408721;28;19932;-71
2023/08/08 13:10:35;;;;;;;;;;;18.90;99.90;;;;;;8378789;28;19967;-71
2023/08/08 13:14:37;;;;;;;;;;;19.00;99.90;;;;;;8394639;28;19924;-70
2023/08/08 13:18:39;;;;;;;;;;;19.00;99.90;;;;;;8397676;28;19991;-71
2023/08/08 13:22:42;;;;;;;;;;;19.00;99.90;;;;;;8411566;28;19978;-71
2023/08/08 13:26:44;;;;;;;;;;;18.90;99.90;;;;;;8382418;28;19939;-71
2023/08/08 13:30:45;;;;;;;;;;;18.90;99.90;;;;;;8392076;28;20704;-71
2023/08/08 13:34:47;;;;;;;;;;;18.80;99.90;;;;;;8382315;28;20268;-71
2023/08/08 13:38:49;;;;;;;;;;;18.80;99.90;;;;;;8374476;28;19924;-70
2023/08/08 13:42:51;;;;;;;;;;;18.70;99.90;;;;;;8391507;28;19928;-71
2023/08/08 13:46:53;;;;;;;;;;;18.70;99.90;;;;;;8394815;28;19979;-71
2023/08/08 13:50:54;;;;;;;;;;;18.70;99.90;;;;;;8397093;28;19925;-71
2023/08/08 13:54:57;;;;;;;;;;;18.70;99.90;;;;;;8394306;28;19923;-70
2023/08/08 13:58:59;;;;;;;;;;;18.70;99.90;;;;;;8407163;28;19977;-71
2023/08/08 14:03:00;;;;;;;;;;;18.70;99.90;;;;;;8398440;28;19924;-70
2023/08/08 14:07:02;;;;;;;;;;;18.80;99.90;;;;;;8400221;28;19928;-71
2023/08/08 14:11:04;;;;;;;;;;;18.80;99.90;;;;;;8397192;28;19977;-71
2023/08/08 14:15:06;;;;;;;;;;;18.90;99.90;;;;;;8388367;28;19933;-71
2023/08/08 14:19:08;;;;;;;;;;;18.90;99.90;;;;;;8397668;28;19929;-71
2023/08/08 14:23:10;;;;;;;;;;;19.00;99.90;;;;;;8391676;28;19925;-71
2023/08/08 14:27:11;;;;;;;;;;;19.00;99.90;;;;;;8386154;28;20325;-70
2023/08/08 14:31:13;;;;;;;;;;;19.00;99.90;;;;;;8392964;28;20276;-70
2023/08/08 14:35:15;;;;;;;;;;;19.00;99.90;;;;;;8400530;28;19932;-70
2023/08/08 14:39:16;;;;;;;;;;;19.00;99.90;;;;;;8403571;28;20379;-70
2023/08/08 14:43:18;;;;;;;;;;;19.00;99.90;;;;;;8399107;28;20601;-70
2023/08/08 14:47:20;;;;;;;;;;;19.10;99.90;;;;;;8364174;28;19928;-70
2023/08/08 14:51:22;;;;;;;;;;;19.00;99.90;;;;;;8373845;28;19978;-70
2023/08/08 14:55:24;;;;;;;;;;;19.00;99.90;;;;;;8394637;28;19933;-70
2023/08/08 14:59:26;;;;;;;;;;;19.00;99.90;;;;;;8371890;28;20399;-70
2023/08/08 15:03:27;;;;;;;;;;;18.90;99.90;;;;;;8400014;28;19927;-70
2023/08/08 15:07:29;;;;;;;;;;;18.90;99.90;;;;;;8402559;28;19960;-69
2023/08/08 15:11:31;;;;;;;;;;;18.90;99.90;;;;;;8395833;28;19948;-70
2023/08/08 15:15:33;;;;;;;;;;;18.90;99.90;;;;;;8381081;28;19928;-71
2023/08/08 15:19:34;;;;;;;;;;;18.90;99.90;;;;;;8389118;28;19928;-70
2023/08/08 15:23:36;;;;;;;;;;;18.90;99.90;;;;;;8386572;28;19931;-70
2023/08/08 15:27:38;;;;;;;;;;;18.90;99.90;;;;;;8389099;28;19978;-70
2023/08/08 15:31:39;;;;;;;;;;;18.90;99.90;;;;;;8388386;28;19924;-70
2023/08/08 15:35:41;;;;;;;;;;;18.90;99.90;;;;;;8386731;28;19934;-70
2023/08/08 15:39:43;;;;;;;;;;;18.90;99.90;;;;;;8368019;28;19928;-70
2023/08/08 15:43:45;;;;;;;;;;;18.90;99.90;;;;;;8403148;28;19935;-71
2023/08/08 15:47:47;;;;;;;;;;;18.90;99.90;;;;;;8395229;28;19929;-71
2023/08/08 15:51:49;;;;;;;;;;;19.00;99.90;;;;;;8386494;28;19928;-70
2023/08/08 15:55:51;;;;;;;;;;;19.10;99.90;;;;;;8387109;28;19928;-70
2023/08/08 15:59:52;;;;;;;;;;;19.10;99.90;;;;;;8404485;28;19928;-70
2023/08/08 16:03:54;;;;;;;;;;;19.00;99.90;;;;;;8382661;28;19924;-70
2023/08/08 16:07:55;;;;;;;;;;;18.90;99.90;;;;;;8389595;28;19932;-70
2023/08/08 16:11:58;;;;;;;;;;;18.80;99.90;;;;;;8378789;28;20269;-69
2023/08/08 16:16:00;;;;;;;;;;;18.70;99.90;;;;;;8378688;28;19969;-70
2023/08/08 16:20:02;;;;;;;;;;;18.70;99.90;;;;;;8393018;28;19935;-70
2023/08/08 16:24:04;;;;;;;;;;;18.70;99.90;;;;;;8382333;28;19974;-70
2023/08/08 16:28:06;;;;;;;;;;;18.50;99.90;;;;;;8370912;28;19924;-70
2023/08/08 16:32:07;;;;;;;;;;;18.40;99.90;;;;;;8384711;28;19989;-70
2023/08/08 16:36:09;;;;;;;;;;;18.40;99.90;;;;;;8389679;28;19924;-70
2023/08/08 16:40:11;;;;;;;;;;;18.30;99.90;;;;;;8388561;28;19924;-70
2023/08/08 16:44:13;;;;;;;;;;;18.30;99.90;;;;;;8387425;28;20296;-70
2023/08/08 16:48:15;;;;;;;;;;;18.10;99.90;;;;;;8386233;28;19970;-69
2023/08/08 16:52:17;;;;;;;;;;;18.10;99.90;;;;;;8390925;28;20376;-70
2023/08/08 16:56:19;;;;;;;;;;;18.10;99.90;;;;;;8395712;28;19986;-70
2023/08/08 17:00:21;;;;;;;;;;;17.90;99.90;;;;;;8396842;28;19973;-70
2023/08/08 17:04:22;;;;;;;;;;;17.80;99.90;;;;;;8395614;28;19962;-69
2023/08/08 17:08:24;;;;;;;;;;;17.80;99.90;;;;;;8397501;28;19928;-69
2023/08/08 17:12:26;;;;;;;;;;;17.70;99.90;;;;;;8405181;28;20396;-70
2023/08/08 17:16:28;;;;;;;;;;;17.70;99.90;;;;;;8397871;28;20391;-70
2023/08/08 17:20:29;;;;;;;;;;;17.70;99.90;;;;;;8391764;28;20383;-70
2023/08/08 17:24:31;;;;;;;;;;;17.70;99.90;;;;;;8405200;28;19982;-70
2023/08/08 17:28:37;;;;;;;;;;;17.70;99.90;;;;;;8392768;28;19924;-70
2023/08/08 17:32:39;;;;;;;;;;;17.70;99.90;;;;;;8396235;28;19924;-71
2023/08/08 17:36:41;;;;;;;;;;;17.70;99.90;;;;;;8384680;28;20274;-69
2023/08/08 17:40:43;;;;;;;;;;;17.70;99.90;;;;;;8390989;28;20112;-70
2023/08/08 17:44:45;;;;;;;;;;;17.70;99.90;;;;;;8387814;28;19928;-70
2023/08/08 17:48:46;;;;;;;;;;;17.60;99.90;;;;;;8399035;28;19931;-69
2023/08/08 17:52:49;;;;;;;;;;;17.60;99.90;;;;;;8397992;28;19939;-70
2023/08/08 17:56:50;;;;;;;;;;;17.50;99.90;;;;;;8395005;28;19976;-70
2023/08/08 18:00:52;;;;;;;;;;;17.50;99.90;;;;;;8390579;28;19929;-70
2023/08/08 18:04:54;;;;;;;;;;;17.30;99.90;;;;;;8400703;28;19924;-70
2023/08/08 18:08:55;;;;;;;;;;;17.20;99.90;;;;;;8398163;28;19928;-70
2023/08/08 18:12:57;;;;;;;;;;;17.10;99.90;;;;;;8393353;28;19947;-70
2023/08/08 18:16:59;;;;;;;;;;;17.00;99.90;;;;;;8392126;28;19928;-70
2023/08/08 18:21:00;;;;;;;;;;;17.00;99.90;;;;;;8403228;28;19928;-70
2023/08/08 18:25:02;;;;;;;;;;;16.90;99.90;;;;;;8403045;27;19932;-70
2023/08/08 18:29:04;;;;;;;;;;;16.80;99.90;;;;;;8384429;28;19928;-70
2023/08/08 18:33:06;;;;;;;;;;;16.80;99.90;;;;;;8396203;28;20300;-70
2023/08/08 18:37:08;;;;;;;;;;;16.70;99.90;;;;;;8396441;28;19971;-70
2023/08/08 18:41:10;;;;;;;;;;;16.70;99.90;;;;;;8406957;27;20422;-70
2023/08/08 18:45:11;;;;;;;;;;;16.60;99.90;;;;;;8412201;27;19928;-70
2023/08/08 18:49:13;;;;;;;;;;;16.60;99.90;;;;;;8404327;28;20280;-70
2023/08/08 18:53:15;;;;;;;;;;;16.60;99.90;;;;;;8445606;27;19932;-70
2023/08/08 18:57:16;;;;;;;;;;;16.50;99.90;;;;;;8408748;28;19924;-70
2023/08/08 19:01:18;;;;;;;;;;;16.40;99.90;;;;;;8406127;28;19928;-70
2023/08/08 19:05:20;;;;;;;;;;;16.30;99.90;;;;;;8405661;28;20282;-70
2023/08/08 19:09:22;;;;;;;;;;;16.20;99.90;;;;;;8400519;28;19932;-69
2023/08/08 19:13:23;;;;;;;;;;;16.20;99.90;;;;;;8412296;28;20264;-70
2023/08/08 19:17:25;;;;;;;;;;;16.10;99.90;;;;;;8398160;28;19924;-70
2023/08/08 19:21:27;;;;;;;;;;;16.10;99.90;;;;;;8396776;28;19936;-70
2023/08/08 19:25:28;;;;;;;;;;;16.10;99.90;;;;;;8401723;28;19925;-70
2023/08/08 19:29:31;;;;;;;;;;;16.00;99.90;;;;;;8400049;28;19939;-70
2023/08/08 19:33:32;;;;;;;;;;;16.00;99.90;;;;;;8398674;28;19933;-70
2023/08/08 19:37:34;;;;;;;;;;;16.00;99.90;;;;;;8390872;28;19928;-71
2023/08/08 19:41:36;;;;;;;;;;;16.00;99.90;;;;;;8400688;28;19928;-70
2023/08/08 19:45:37;;;;;;;;;;;15.90;99.90;;;;;;8396026;28;20368;-70
2023/08/08 19:49:39;;;;;;;;;;;15.90;99.90;;;;;;8393793;28;20007;-70
2023/08/08 19:53:42;;;;;;;;;;;15.90;99.90;;;;;;8399768;28;20394;-70
2023/08/08 19:57:43;;;;;;;;;;;15.90;99.90;;;;;;8404871;28;20334;-69
2023/08/08 20:01:45;;;;;;;;;;;16.00;99.90;;;;;;8397024;28;19969;-70
2023/08/08 20:05:47;;;;;;;;;;;16.00;99.90;;;;;;8400182;28;19985;-70
2023/08/08 20:09:48;;;;;;;;;;;16.10;99.90;;;;;;8394266;28;19925;-69
2023/08/08 20:13:50;;;;;;;;;;;16.10;99.90;;;;;;8396305;28;20376;-70
2023/08/08 20:17:52;;;;;;;;;;;16.20;99.90;;;;;;8384137;28;19936;-70
2023/08/08 20:21:53;;;;;;;;;;;16.20;99.90;;;;;;8395075;28;19928;-69
2023/08/08 20:25:57;;;;;;;;;;;16.20;99.90;;;;;;8396777;28;19924;-70
2023/08/08 20:29:59;;;;;;;;;;;16.10;99.90;;;;;;8401306;28;19943;-70
2023/08/08 20:34:01;;;;;;;;;;;16.10;99.90;;;;;;8400551;28;20372;-70
2023/08/08 20:38:03;;;;;;;;;;;16.00;99.90;;;;;;8400112;28;19982;-70
2023/08/08 20:42:04;;;;;;;;;;;16.00;99.90;;;;;;8404875;28;19955;-70
2023/08/08 20:46:06;;;;;;;;;;;16.00;99.90;;;;;;8389383;28;19925;-70
2023/08/08 20:50:08;;;;;;;;;;;15.90;99.90;;;;;;8396078;28;20024;-70
2023/08/08 20:54:10;;;;;;;;;;;15.90;99.90;;;;;;8396887;28;19932;-70
2023/08/08 20:58:12;;;;;;;;;;;15.90;99.90;;;;;;8400459;28;19939;-70
2023/08/08 21:02:13;;;;;;;;;;;15.90;99.90;;;;;;8399492;28;19924;-70
2023/08/08 21:06:15;;;;;;;;;;;15.80;99.90;;;;;;8431997;28;19931;-70
2023/08/08 21:10:17;;;;;;;;;;;15.80;99.90;;;;;;8411878;28;20302;-70
2023/08/08 21:14:18;;;;;;;;;;;15.70;99.90;;;;;;8420668;28;19924;-70
2023/08/08 21:18:21;;;;;;;;;;;15.60;99.90;;;;;;8420490;28;19925;-70
2023/08/08 21:22:23;;;;;;;;;;;15.60;99.90;;;;;;8425045;28;19932;-70
2023/08/08 21:26:24;;;;;;;;;;;15.60;99.90;;;;;;8421003;28;19970;-70
2023/08/08 21:30:34;;;;;;;;;;;15.60;99.90;;;;;;8421646;28;20007;-70
2023/08/08 21:34:36;;;;;;;;;;;15.50;99.90;;;;;;8440795;28;19979;-70
2023/08/08 21:38:38;;;;;;;;;;;15.60;99.90;;;;;;8408291;28;19925;-70
2023/08/08 21:42:40;;;;;;;;;;;15.60;99.90;;;;;;8447401;28;20159;-70
2023/08/08 21:46:42;;;;;;;;;;;15.60;99.90;;;;;;8413964;28;19928;-70
2023/08/08 21:50:43;;;;;;;;;;;15.60;99.90;;;;;;8424079;28;19924;-70
2023/08/08 21:54:45;;;;;;;;;;;15.60;99.90;;;;;;8449610;27;19931;-70
2023/08/08 21:58:47;;;;;;;;;;;15.60;99.90;;;;;;8420059;28;20326;-70
2023/08/08 22:02:48;;;;;;;;;;;15.70;99.90;;;;;;8422016;28;19939;-70
2023/08/08 22:06:50;;;;;;;;;;;15.70;99.90;;;;;;8412867;28;19968;-70
2023/08/08 22:10:52;;;;;;;;;;;15.70;99.90;;;;;;8436139;28;19969;-70
2023/08/08 22:14:54;;;;;;;;;;;15.70;99.90;;;;;;8417238;28;19931;-69
2023/08/08 22:18:56;;;;;;;;;;;15.70;99.90;;;;;;8431625;28;20272;-71
2023/08/08 22:22:57;;;;;;;;;;;15.80;99.90;;;;;;8415236;28;20390;-70
2023/08/08 22:27:10;;;;;;;;;;;15.80;99.90;;;;;;8420190;28;20415;-70
2023/08/08 22:31:12;;;;;;;;;;;15.80;99.90;;;;;;8421556;28;20023;-70
2023/08/08 22:35:13;;;;;;;;;;;15.80;99.90;;;;;;8427860;27;19924;-70
2023/08/08 22:39:15;;;;;;;;;;;15.80;99.90;;;;;;8420678;28;20399;-70
2023/08/08 22:43:17;;;;;;;;;;;15.80;99.90;;;;;;8430740;27;19928;-70
2023/08/08 22:47:18;;;;;;;;;;;15.90;99.90;;;;;;8410336;28;20384;-70
2023/08/08 22:51:21;;;;;;;;;;;15.90;99.90;;;;;;8420882;28;19931;-71
2023/08/08 22:55:22;;;;;;;;;;;15.90;99.90;;;;;;8412435;28;20360;-69
2023/08/08 22:59:24;;;;;;;;;;;15.90;99.90;;;;;;8418657;27;19924;-69
2023/08/08 23:03:25;;;;;;;;;;;15.90;99.90;;;;;;8418825;28;19943;-70
2023/08/08 23:07:27;;;;;;;;;;;15.90;99.90;;;;;;8436940;28;20294;-70
2023/08/08 23:11:29;;;;;;;;;;;15.90;99.90;;;;;;8414599;28;19928;-70
2023/08/08 23:15:31;;;;;;;;;;;15.90;99.90;;;;;;8407031;28;19934;-70
2023/08/08 23:19:32;;;;;;;;;;;15.90;99.90;;;;;;8410957;28;19928;-70
2023/08/08 23:23:34;;;;;;;;;;;15.80;99.90;;;;;;8423634;28;19977;-70
2023/08/08 23:27:35;;;;;;;;;;;15.80;99.90;;;;;;8398419;28;20282;-70
2023/08/08 23:31:37;;;;;;;;;;;15.70;99.90;;;;;;8437101;27;19928;-70
2023/08/08 23:35:39;;;;;;;;;;;15.70;99.90;;;;;;8391082;28;19960;-70
2023/08/08 23:39:40;;;;;;;;;;;15.60;99.90;;;;;;8426117;28;20261;-70
2023/08/08 23:43:42;;;;;;;;;;;15.50;99.90;;;;;;8425006;28;19924;-70
2023/08/08 23:47:45;;;;;;;;;;;15.50;99.90;;;;;;8416264;28;19931;-70
2023/08/08 23:51:46;;;;;;;;;;;15.50;99.90;;;;;;8416192;28;19924;-70
2023/08/08 23:55:48;;;;;;;;;;;15.50;99.90;;;;;;8418667;28;19924;-70